sensor_id;sensor_type;location;lat;lon;timestamp;P1;durP1;ratioP1;P2;durP2;ratioP2
3891;SDS011;1961;48.194;16.370;2022-10-31T00:01:25;53.27;;;14.03;;
3891;SDS011;1961;48.194;16.370;2022-10-31T00:03:52;51.87;;;13.40;;
3891;SDS011;1961;48.194;16.370;2022-10-31T00:06:18;52.13;;;13.67;;
3891;SDS011;1961;48.194;16.370;2022-10-31T00:08:45;51.90;;;13.20;;
3891;SDS011;1961;48.194;16.370;2022-10-31T00:11:12;52.20;;;13.73;;
3891;SDS011;1961;48.194;16.370;2022-10-31T00:13:38;52.67;;;13.33;;
3891;SDS011;1961;48.194;16.370;2022-10-31T00:16:04;51.80;;;13.07;;
3891;SDS011;1961;48.194;16.370;2022-10-31T00:18:31;51.03;;;13.40;;
3891;SDS011;1961;48.194;16.370;2022-10-31T00:21:00;52.60;;;14.00;;
3891;SDS011;1961;48.194;16.370;2022-10-31T00:23:27;51.43;;;12.90;;
3891;SDS011;1961;48.194;16.370;2022-10-31T00:25:53;52.30;;;13.13;;
3891;SDS011;1961;48.194;16.370;2022-10-31T00:28:19;51.63;;;13.50;;
3891;SDS011;1961;48.194;16.370;2022-10-31T00:30:46;52.90;;;13.30;;
3891;SDS011;1961;48.194;16.370;2022-10-31T00:33:12;51.00;;;13.47;;
3891;SDS011;1961;48.194;16.370;2022-10-31T00:35:38;50.67;;;12.73;;
3891;SDS011;1961;48.194;16.370;2022-10-31T00:38:04;49.87;;;12.63;;
3891;SDS011;1961;48.194;16.370;2022-10-31T00:40:31;51.80;;;12.60;;
3891;SDS011;1961;48.194;16.370;2022-10-31T00:42:57;48.93;;;12.30;;
3891;SDS011;1961;48.194;16.370;2022-10-31T00:45:23;50.13;;;13.37;;
3891;SDS011;1961;48.194;16.370;2022-10-31T00:47:50;50.95;;;12.55;;
3891;SDS011;1961;48.194;16.370;2022-10-31T00:50:16;48.50;;;12.43;;
3891;SDS011;1961;48.194;16.370;2022-10-31T00:52:42;49.60;;;12.47;;
3891;SDS011;1961;48.194;16.370;2022-10-31T00:55:09;50.80;;;12.83;;
3891;SDS011;1961;48.194;16.370;2022-10-31T00:57:35;53.00;;;12.90;;
3891;SDS011;1961;48.194;16.370;2022-10-31T01:00:02;51.73;;;11.80;;
3891;SDS011;1961;48.194;16.370;2022-10-31T01:02:28;50.00;;;12.50;;
3891;SDS011;1961;48.194;16.370;2022-10-31T01:04:55;50.17;;;11.97;;
3891;SDS011;1961;48.194;16.370;2022-10-31T01:07:21;49.43;;;11.83;;
3891;SDS011;1961;48.194;16.370;2022-10-31T01:09:47;50.50;;;12.10;;
3891;SDS011;1961;48.194;16.370;2022-10-31T01:12:13;51.17;;;12.50;;
3891;SDS011;1961;48.194;16.370;2022-10-31T01:14:43;49.77;;;12.40;;
3891;SDS011;1961;48.194;16.370;2022-10-31T01:17:10;50.50;;;12.33;;
3891;SDS011;1961;48.194;16.370;2022-10-31T01:19:36;51.90;;;13.17;;
3891;SDS011;1961;48.194;16.370;2022-10-31T01:22:03;52.17;;;13.40;;
3891;SDS011;1961;48.194;16.370;2022-10-31T01:24:29;49.93;;;11.57;;
3891;SDS011;1961;48.194;16.370;2022-10-31T01:26:55;50.20;;;12.40;;
3891;SDS011;1961;48.194;16.370;2022-10-31T01:29:21;50.33;;;12.40;;
3891;SDS011;1961;48.194;16.370;2022-10-31T01:31:47;49.10;;;10.90;;
3891;SDS011;1961;48.194;16.370;2022-10-31T01:34:15;49.07;;;12.67;;
3891;SDS011;1961;48.194;16.370;2022-10-31T01:36:41;48.07;;;11.33;;
3891;SDS011;1961;48.194;16.370;2022-10-31T01:39:09;50.53;;;12.17;;
3891;SDS011;1961;48.194;16.370;2022-10-31T01:41:36;50.27;;;13.17;;
3891;SDS011;1961;48.194;16.370;2022-10-31T01:44:45;49.40;;;11.70;;
3891;SDS011;1961;48.194;16.370;2022-10-31T01:49:45;50.10;;;12.67;;
3891;SDS011;1961;48.194;16.370;2022-10-31T01:54:43;51.83;;;12.37;;
3891;SDS011;1961;48.194;16.370;2022-10-31T01:57:11;49.17;;;11.60;;
3891;SDS011;1961;48.194;16.370;2022-10-31T01:59:40;51.20;;;12.40;;
3891;SDS011;1961;48.194;16.370;2022-10-31T02:02:08;50.20;;;12.30;;
3891;SDS011;1961;48.194;16.370;2022-10-31T02:04:35;50.93;;;12.97;;
3891;SDS011;1961;48.194;16.370;2022-10-31T02:07:02;51.00;;;13.00;;
3891;SDS011;1961;48.194;16.370;2022-10-31T02:09:32;48.57;;;11.60;;
3891;SDS011;1961;48.194;16.370;2022-10-31T02:12:00;48.97;;;11.32;;
3891;SDS011;1961;48.194;16.370;2022-10-31T02:14:27;50.93;;;12.60;;
3891;SDS011;1961;48.194;16.370;2022-10-31T02:16:55;49.77;;;11.37;;
3891;SDS011;1961;48.194;16.370;2022-10-31T02:21:55;53.60;;;12.40;;
3891;SDS011;1961;48.194;16.370;2022-10-31T02:37:10;48.40;;;11.27;;
3891;SDS011;1961;48.194;16.370;2022-10-31T02:42:14;49.73;;;11.60;;
3891;SDS011;1961;48.194;16.370;2022-10-31T02:47:11;49.27;;;11.60;;
3891;SDS011;1961;48.194;16.370;2022-10-31T02:49:48;51.27;;;11.10;;
3891;SDS011;1961;48.194;16.370;2022-10-31T02:52:17;49.50;;;11.53;;
3891;SDS011;1961;48.194;16.370;2022-10-31T02:54:45;47.17;;;11.13;;
3891;SDS011;1961;48.194;16.370;2022-10-31T02:57:11;48.20;;;12.00;;
3891;SDS011;1961;48.194;16.370;2022-10-31T02:59:39;49.50;;;11.30;;
3891;SDS011;1961;48.194;16.370;2022-10-31T03:07:08;47.40;;;10.47;;
3891;SDS011;1961;48.194;16.370;2022-10-31T03:10:00;47.53;;;10.37;;
3891;SDS011;1961;48.194;16.370;2022-10-31T03:17:37;46.20;;;9.73;;
3891;SDS011;1961;48.194;16.370;2022-10-31T03:20:04;48.10;;;10.60;;
3891;SDS011;1961;48.194;16.370;2022-10-31T03:22:32;46.50;;;10.40;;
3891;SDS011;1961;48.194;16.370;2022-10-31T03:24:59;46.47;;;10.07;;
3891;SDS011;1961;48.194;16.370;2022-10-31T03:27:27;47.73;;;9.90;;
3891;SDS011;1961;48.194;16.370;2022-10-31T03:29:55;46.20;;;9.33;;
3891;SDS011;1961;48.194;16.370;2022-10-31T03:32:24;49.43;;;11.03;;
3891;SDS011;1961;48.194;16.370;2022-10-31T03:34:51;48.27;;;10.47;;
3891;SDS011;1961;48.194;16.370;2022-10-31T03:37:19;46.80;;;10.20;;
3891;SDS011;1961;48.194;16.370;2022-10-31T03:39:47;46.43;;;10.00;;
3891;SDS011;1961;48.194;16.370;2022-10-31T03:42:16;46.67;;;10.20;;
3891;SDS011;1961;48.194;16.370;2022-10-31T03:44:46;46.67;;;9.93;;
3891;SDS011;1961;48.194;16.370;2022-10-31T03:47:15;47.90;;;10.70;;
3891;SDS011;1961;48.194;16.370;2022-10-31T03:49:42;48.00;;;10.90;;
3891;SDS011;1961;48.194;16.370;2022-10-31T03:52:21;49.73;;;10.60;;
3891;SDS011;1961;48.194;16.370;2022-10-31T03:54:53;46.97;;;10.17;;
3891;SDS011;1961;48.194;16.370;2022-10-31T03:59:54;45.60;;;10.00;;
3891;SDS011;1961;48.194;16.370;2022-10-31T04:02:22;46.33;;;10.53;;
3891;SDS011;1961;48.194;16.370;2022-10-31T04:04:51;47.77;;;10.90;;
3891;SDS011;1961;48.194;16.370;2022-10-31T04:07:18;49.10;;;10.73;;
3891;SDS011;1961;48.194;16.370;2022-10-31T04:09:46;45.87;;;9.60;;
3891;SDS011;1961;48.194;16.370;2022-10-31T04:12:14;45.90;;;9.10;;
3891;SDS011;1961;48.194;16.370;2022-10-31T04:14:42;46.03;;;8.83;;
3891;SDS011;1961;48.194;16.370;2022-10-31T04:17:14;45.37;;;8.97;;
3891;SDS011;1961;48.194;16.370;2022-10-31T04:19:41;44.80;;;9.00;;
3891;SDS011;1961;48.194;16.370;2022-10-31T04:22:08;45.30;;;9.00;;
3891;SDS011;1961;48.194;16.370;2022-10-31T04:24:35;45.57;;;8.97;;
3891;SDS011;1961;48.194;16.370;2022-10-31T04:27:02;45.50;;;8.55;;
3891;SDS011;1961;48.194;16.370;2022-10-31T04:29:28;46.57;;;8.47;;
3891;SDS011;1961;48.194;16.370;2022-10-31T04:31:54;43.50;;;9.00;;
3891;SDS011;1961;48.194;16.370;2022-10-31T04:34:20;44.00;;;8.77;;
3891;SDS011;1961;48.194;16.370;2022-10-31T04:36:47;44.80;;;8.20;;
3891;SDS011;1961;48.194;16.370;2022-10-31T04:39:13;46.10;;;9.38;;
3891;SDS011;1961;48.194;16.370;2022-10-31T04:41:39;43.80;;;8.10;;
3891;SDS011;1961;48.194;16.370;2022-10-31T04:44:05;44.50;;;8.32;;
3891;SDS011;1961;48.194;16.370;2022-10-31T04:46:32;47.37;;;8.70;;
3891;SDS011;1961;48.194;16.370;2022-10-31T04:48:58;45.30;;;8.43;;
3891;SDS011;1961;48.194;16.370;2022-10-31T04:51:24;44.87;;;8.10;;
3891;SDS011;1961;48.194;16.370;2022-10-31T04:53:50;44.07;;;7.83;;
3891;SDS011;1961;48.194;16.370;2022-10-31T04:56:16;44.50;;;8.23;;
3891;SDS011;1961;48.194;16.370;2022-10-31T04:58:44;44.97;;;8.70;;
3891;SDS011;1961;48.194;16.370;2022-10-31T05:01:10;44.40;;;7.70;;
3891;SDS011;1961;48.194;16.370;2022-10-31T05:03:36;45.00;;;7.60;;
3891;SDS011;1961;48.194;16.370;2022-10-31T05:06:05;43.80;;;7.40;;
3891;SDS011;1961;48.194;16.370;2022-10-31T05:08:31;45.15;;;8.50;;
3891;SDS011;1961;48.194;16.370;2022-10-31T05:11:00;51.13;;;9.43;;
3891;SDS011;1961;48.194;16.370;2022-10-31T05:13:27;44.07;;;8.30;;
3891;SDS011;1961;48.194;16.370;2022-10-31T05:15:53;44.22;;;8.27;;
3891;SDS011;1961;48.194;16.370;2022-10-31T05:18:20;45.00;;;8.87;;
3891;SDS011;1961;48.194;16.370;2022-10-31T05:20:47;43.87;;;7.87;;
3891;SDS011;1961;48.194;16.370;2022-10-31T05:23:13;45.67;;;10.10;;
3891;SDS011;1961;48.194;16.370;2022-10-31T05:25:40;44.60;;;9.30;;
3891;SDS011;1961;48.194;16.370;2022-10-31T05:28:06;44.90;;;9.70;;
3891;SDS011;1961;48.194;16.370;2022-10-31T05:30:33;44.00;;;8.10;;
3891;SDS011;1961;48.194;16.370;2022-10-31T05:32:59;45.60;;;9.00;;
3891;SDS011;1961;48.194;16.370;2022-10-31T05:35:29;44.85;;;8.05;;
3891;SDS011;1961;48.194;16.370;2022-10-31T05:37:56;45.07;;;8.47;;
3891;SDS011;1961;48.194;16.370;2022-10-31T05:40:23;44.63;;;8.00;;
3891;SDS011;1961;48.194;16.370;2022-10-31T05:42:53;45.60;;;8.70;;
3891;SDS011;1961;48.194;16.370;2022-10-31T05:45:19;45.30;;;8.50;;
3891;SDS011;1961;48.194;16.370;2022-10-31T05:47:52;45.80;;;8.33;;
3891;SDS011;1961;48.194;16.370;2022-10-31T05:50:19;44.03;;;8.23;;
3891;SDS011;1961;48.194;16.370;2022-10-31T05:52:45;45.03;;;8.23;;
3891;SDS011;1961;48.194;16.370;2022-10-31T05:55:12;44.88;;;7.93;;
3891;SDS011;1961;48.194;16.370;2022-10-31T05:57:38;46.53;;;7.75;;
3891;SDS011;1961;48.194;16.370;2022-10-31T06:00:05;44.73;;;8.60;;
3891;SDS011;1961;48.194;16.370;2022-10-31T06:02:31;48.13;;;8.85;;
3891;SDS011;1961;48.194;16.370;2022-10-31T06:04:59;44.50;;;8.90;;
3891;SDS011;1961;48.194;16.370;2022-10-31T06:07:26;44.50;;;8.03;;
3891;SDS011;1961;48.194;16.370;2022-10-31T06:09:52;46.85;;;7.40;;
3891;SDS011;1961;48.194;16.370;2022-10-31T06:12:18;46.40;;;8.97;;
3891;SDS011;1961;48.194;16.370;2022-10-31T06:14:45;44.45;;;7.72;;
3891;SDS011;1961;48.194;16.370;2022-10-31T06:17:11;48.05;;;8.13;;
3891;SDS011;1961;48.194;16.370;2022-10-31T06:19:37;45.50;;;8.03;;
3891;SDS011;1961;48.194;16.370;2022-10-31T06:22:03;46.40;;;8.13;;
3891;SDS011;1961;48.194;16.370;2022-10-31T06:24:30;45.95;;;8.52;;
3891;SDS011;1961;48.194;16.370;2022-10-31T06:26:56;47.20;;;9.47;;
3891;SDS011;1961;48.194;16.370;2022-10-31T06:29:22;45.55;;;8.45;;
3891;SDS011;1961;48.194;16.370;2022-10-31T06:31:50;46.47;;;8.83;;
3891;SDS011;1961;48.194;16.370;2022-10-31T06:34:17;46.22;;;9.05;;
3891;SDS011;1961;48.194;16.370;2022-10-31T06:36:43;47.27;;;8.83;;
3891;SDS011;1961;48.194;16.370;2022-10-31T06:39:09;47.10;;;8.97;;
3891;SDS011;1961;48.194;16.370;2022-10-31T06:41:35;49.30;;;9.70;;
3891;SDS011;1961;48.194;16.370;2022-10-31T06:44:02;48.30;;;8.60;;
3891;SDS011;1961;48.194;16.370;2022-10-31T06:46:28;46.60;;;9.65;;
3891;SDS011;1961;48.194;16.370;2022-10-31T06:48:54;47.07;;;8.77;;
3891;SDS011;1961;48.194;16.370;2022-10-31T06:51:21;46.85;;;9.90;;
3891;SDS011;1961;48.194;16.370;2022-10-31T06:53:47;47.03;;;9.32;;
3891;SDS011;1961;48.194;16.370;2022-10-31T06:56:13;46.42;;;8.73;;
3891;SDS011;1961;48.194;16.370;2022-10-31T06:58:39;45.90;;;8.93;;
3891;SDS011;1961;48.194;16.370;2022-10-31T07:01:05;45.60;;;8.83;;
3891;SDS011;1961;48.194;16.370;2022-10-31T07:03:31;45.53;;;9.38;;
3891;SDS011;1961;48.194;16.370;2022-10-31T07:05:58;46.28;;;9.40;;
3891;SDS011;1961;48.194;16.370;2022-10-31T07:08:24;48.75;;;10.68;;
3891;SDS011;1961;48.194;16.370;2022-10-31T07:10:51;48.13;;;9.43;;
3891;SDS011;1961;48.194;16.370;2022-10-31T07:13:18;50.75;;;9.73;;
3891;SDS011;1961;48.194;16.370;2022-10-31T07:15:50;50.33;;;9.07;;
3891;SDS011;1961;48.194;16.370;2022-10-31T07:18:16;52.40;;;8.93;;
3891;SDS011;1961;48.194;16.370;2022-10-31T07:20:42;48.65;;;10.10;;
3891;SDS011;1961;48.194;16.370;2022-10-31T07:23:09;46.53;;;8.95;;
3891;SDS011;1961;48.194;16.370;2022-10-31T07:25:36;51.47;;;10.07;;
3891;SDS011;1961;48.194;16.370;2022-10-31T07:28:03;53.77;;;10.30;;
3891;SDS011;1961;48.194;16.370;2022-10-31T07:30:29;47.60;;;9.52;;
3891;SDS011;1961;48.194;16.370;2022-10-31T07:32:55;48.95;;;9.88;;
3891;SDS011;1961;48.194;16.370;2022-10-31T07:35:25;48.70;;;9.10;;
3891;SDS011;1961;48.194;16.370;2022-10-31T07:37:52;48.47;;;10.38;;
3891;SDS011;1961;48.194;16.370;2022-10-31T07:40:18;50.13;;;10.10;;
3891;SDS011;1961;48.194;16.370;2022-10-31T07:42:46;47.90;;;9.68;;
3891;SDS011;1961;48.194;16.370;2022-10-31T07:45:13;46.33;;;9.93;;
3891;SDS011;1961;48.194;16.370;2022-10-31T07:47:43;52.23;;;10.60;;
3891;SDS011;1961;48.194;16.370;2022-10-31T07:50:11;49.27;;;11.43;;
3891;SDS011;1961;48.194;16.370;2022-10-31T07:52:37;50.70;;;11.90;;
3891;SDS011;1961;48.194;16.370;2022-10-31T07:55:04;50.38;;;10.93;;
3891;SDS011;1961;48.194;16.370;2022-10-31T07:57:30;50.03;;;10.17;;
3891;SDS011;1961;48.194;16.370;2022-10-31T07:59:57;51.22;;;11.80;;
3891;SDS011;1961;48.194;16.370;2022-10-31T08:02:23;50.40;;;11.60;;
3891;SDS011;1961;48.194;16.370;2022-10-31T08:04:50;51.53;;;11.17;;
3891;SDS011;1961;48.194;16.370;2022-10-31T08:07:16;56.45;;;10.55;;
3891;SDS011;1961;48.194;16.370;2022-10-31T08:09:43;50.20;;;11.60;;
3891;SDS011;1961;48.194;16.370;2022-10-31T08:12:09;48.83;;;11.03;;
3891;SDS011;1961;48.194;16.370;2022-10-31T08:14:35;49.80;;;11.83;;
3891;SDS011;1961;48.194;16.370;2022-10-31T08:17:01;52.37;;;12.50;;
3891;SDS011;1961;48.194;16.370;2022-10-31T08:19:28;53.47;;;12.00;;
3891;SDS011;1961;48.194;16.370;2022-10-31T08:21:54;49.70;;;11.82;;
3891;SDS011;1961;48.194;16.370;2022-10-31T08:24:21;50.80;;;12.52;;
3891;SDS011;1961;48.194;16.370;2022-10-31T08:26:47;52.70;;;13.10;;
3891;SDS011;1961;48.194;16.370;2022-10-31T08:29:14;51.97;;;12.82;;
3891;SDS011;1961;48.194;16.370;2022-10-31T08:31:43;57.17;;;14.60;;
3891;SDS011;1961;48.194;16.370;2022-10-31T08:34:09;53.42;;;13.50;;
3891;SDS011;1961;48.194;16.370;2022-10-31T08:36:35;53.43;;;13.40;;
3891;SDS011;1961;48.194;16.370;2022-10-31T08:39:02;51.80;;;13.80;;
3891;SDS011;1961;48.194;16.370;2022-10-31T08:41:28;53.67;;;13.30;;
3891;SDS011;1961;48.194;16.370;2022-10-31T08:43:55;55.50;;;13.60;;
3891;SDS011;1961;48.194;16.370;2022-10-31T08:46:21;55.50;;;13.70;;
3891;SDS011;1961;48.194;16.370;2022-10-31T08:48:48;54.70;;;14.70;;
3891;SDS011;1961;48.194;16.370;2022-10-31T08:51:14;54.20;;;14.87;;
3891;SDS011;1961;48.194;16.370;2022-10-31T08:53:41;55.67;;;14.90;;
3891;SDS011;1961;48.194;16.370;2022-10-31T08:56:07;53.90;;;14.37;;
3891;SDS011;1961;48.194;16.370;2022-10-31T08:58:33;68.33;;;17.90;;
3891;SDS011;1961;48.194;16.370;2022-10-31T09:01:00;57.10;;;16.20;;
3891;SDS011;1961;48.194;16.370;2022-10-31T09:03:27;59.53;;;15.25;;
3891;SDS011;1961;48.194;16.370;2022-10-31T09:05:55;60.23;;;16.70;;
3891;SDS011;1961;48.194;16.370;2022-10-31T09:08:21;58.65;;;16.98;;
3891;SDS011;1961;48.194;16.370;2022-10-31T09:10:48;57.43;;;16.73;;
3891;SDS011;1961;48.194;16.370;2022-10-31T09:13:15;59.53;;;15.27;;
3891;SDS011;1961;48.194;16.370;2022-10-31T09:15:42;58.17;;;16.10;;
3891;SDS011;1961;48.194;16.370;2022-10-31T09:18:09;59.30;;;16.27;;
3891;SDS011;1961;48.194;16.370;2022-10-31T09:20:36;58.53;;;17.43;;
3891;SDS011;1961;48.194;16.370;2022-10-31T09:23:04;61.83;;;17.87;;
3891;SDS011;1961;48.194;16.370;2022-10-31T09:25:31;56.72;;;16.05;;
3891;SDS011;1961;48.194;16.370;2022-10-31T09:27:58;61.13;;;15.87;;
3891;SDS011;1961;48.194;16.370;2022-10-31T09:30:25;59.13;;;16.43;;
3891;SDS011;1961;48.194;16.370;2022-10-31T09:33:11;58.10;;;16.90;;
3891;SDS011;1961;48.194;16.370;2022-10-31T09:35:37;56.03;;;16.30;;
3891;SDS011;1961;48.194;16.370;2022-10-31T09:38:05;58.47;;;16.50;;
3891;SDS011;1961;48.194;16.370;2022-10-31T09:51:45;57.13;;;15.63;;
3891;SDS011;1961;48.194;16.370;2022-10-31T09:56:38;64.60;;;17.33;;
3891;SDS011;1961;48.194;16.370;2022-10-31T09:59:05;59.50;;;17.03;;
3891;SDS011;1961;48.194;16.370;2022-10-31T10:02:05;60.50;;;17.50;;
3891;SDS011;1961;48.194;16.370;2022-10-31T10:09:47;67.43;;;17.57;;
3891;SDS011;1961;48.194;16.370;2022-10-31T10:12:36;64.60;;;19.27;;
3891;SDS011;1961;48.194;16.370;2022-10-31T10:20:41;69.63;;;20.60;;
3891;SDS011;1961;48.194;16.370;2022-10-31T10:25:34;61.30;;;17.47;;
3891;SDS011;1961;48.194;16.370;2022-10-31T10:28:20;62.80;;;19.03;;
3891;SDS011;1961;48.194;16.370;2022-10-31T10:31:01;62.13;;;18.57;;
3891;SDS011;1961;48.194;16.370;2022-10-31T10:33:30;62.27;;;18.23;;
3891;SDS011;1961;48.194;16.370;2022-10-31T10:36:05;61.50;;;18.70;;
3891;SDS011;1961;48.194;16.370;2022-10-31T10:41:03;58.63;;;17.00;;
3891;SDS011;1961;48.194;16.370;2022-10-31T10:43:34;59.83;;;17.37;;
3891;SDS011;1961;48.194;16.370;2022-10-31T10:54:00;65.67;;;18.77;;
3891;SDS011;1961;48.194;16.370;2022-10-31T10:59:09;63.72;;;18.08;;
3891;SDS011;1961;48.194;16.370;2022-10-31T11:01:38;61.47;;;19.77;;
3891;SDS011;1961;48.194;16.370;2022-10-31T11:04:07;64.60;;;19.67;;
3891;SDS011;1961;48.194;16.370;2022-10-31T11:06:41;66.70;;;18.97;;
3891;SDS011;1961;48.194;16.370;2022-10-31T11:09:08;65.30;;;19.83;;
3891;SDS011;1961;48.194;16.370;2022-10-31T11:11:36;70.45;;;20.05;;
3891;SDS011;1961;48.194;16.370;2022-10-31T11:14:05;71.80;;;21.70;;
3891;SDS011;1961;48.194;16.370;2022-10-31T11:16:38;68.10;;;21.83;;
3891;SDS011;1961;48.194;16.370;2022-10-31T11:19:24;74.13;;;23.20;;
3891;SDS011;1961;48.194;16.370;2022-10-31T11:21:53;82.07;;;26.50;;
3891;SDS011;1961;48.194;16.370;2022-10-31T11:24:23;75.03;;;24.63;;
3891;SDS011;1961;48.194;16.370;2022-10-31T11:27:05;89.87;;;26.60;;
3891;SDS011;1961;48.194;16.370;2022-10-31T11:29:37;88.63;;;28.57;;
3891;SDS011;1961;48.194;16.370;2022-10-31T11:32:03;89.77;;;27.40;;
3891;SDS011;1961;48.194;16.370;2022-10-31T11:37:01;92.77;;;28.73;;
3891;SDS011;1961;48.194;16.370;2022-10-31T11:39:29;92.47;;;30.30;;
3891;SDS011;1961;48.194;16.370;2022-10-31T11:41:59;97.45;;;31.90;;
3891;SDS011;1961;48.194;16.370;2022-10-31T11:44:26;101.90;;;30.87;;
3891;SDS011;1961;48.194;16.370;2022-10-31T11:46:57;94.50;;;32.00;;
3891;SDS011;1961;48.194;16.370;2022-10-31T11:52:26;96.87;;;30.53;;
3891;SDS011;1961;48.194;16.370;2022-10-31T11:57:23;94.20;;;29.75;;
3891;SDS011;1961;48.194;16.370;2022-10-31T11:59:51;100.40;;;32.42;;
3891;SDS011;1961;48.194;16.370;2022-10-31T12:02:19;93.67;;;31.00;;
3891;SDS011;1961;48.194;16.370;2022-10-31T12:04:47;97.10;;;30.93;;
3891;SDS011;1961;48.194;16.370;2022-10-31T12:07:15;99.97;;;33.77;;
3891;SDS011;1961;48.194;16.370;2022-10-31T12:09:41;88.57;;;30.43;;
3891;SDS011;1961;48.194;16.370;2022-10-31T12:14:49;93.93;;;30.67;;
3891;SDS011;1961;48.194;16.370;2022-10-31T12:17:18;87.63;;;30.30;;
3891;SDS011;1961;48.194;16.370;2022-10-31T12:22:44;92.43;;;32.77;;
3891;SDS011;1961;48.194;16.370;2022-10-31T12:28:09;99.93;;;32.30;;
3891;SDS011;1961;48.194;16.370;2022-10-31T12:30:46;92.47;;;31.47;;
3891;SDS011;1961;48.194;16.370;2022-10-31T12:33:21;91.37;;;29.70;;
3891;SDS011;1961;48.194;16.370;2022-10-31T12:41:19;100.70;;;31.43;;
3891;SDS011;1961;48.194;16.370;2022-10-31T12:44:04;99.37;;;34.27;;
3891;SDS011;1961;48.194;16.370;2022-10-31T12:49:04;88.70;;;27.70;;
3891;SDS011;1961;48.194;16.370;2022-10-31T12:51:37;89.43;;;27.80;;
3891;SDS011;1961;48.194;16.370;2022-10-31T12:54:39;97.40;;;32.10;;
3891;SDS011;1961;48.194;16.370;2022-10-31T13:02:17;95.70;;;31.90;;
3891;SDS011;1961;48.194;16.370;2022-10-31T13:09:57;104.10;;;33.67;;
3891;SDS011;1961;48.194;16.370;2022-10-31T13:12:24;103.72;;;33.90;;
3891;SDS011;1961;48.194;16.370;2022-10-31T13:14:53;99.10;;;33.50;;
3891;SDS011;1961;48.194;16.370;2022-10-31T13:17:26;103.13;;;33.05;;
3891;SDS011;1961;48.194;16.370;2022-10-31T13:19:55;104.93;;;34.05;;
3891;SDS011;1961;48.194;16.370;2022-10-31T13:22:29;102.43;;;36.03;;
3891;SDS011;1961;48.194;16.370;2022-10-31T13:25:09;115.40;;;35.75;;
3891;SDS011;1961;48.194;16.370;2022-10-31T13:30:17;101.93;;;35.20;;
3891;SDS011;1961;48.194;16.370;2022-10-31T13:35:21;103.70;;;35.97;;
3891;SDS011;1961;48.194;16.370;2022-10-31T13:40:33;107.00;;;35.30;;
3891;SDS011;1961;48.194;16.370;2022-10-31T13:45:48;97.55;;;32.17;;
3891;SDS011;1961;48.194;16.370;2022-10-31T13:50:43;104.30;;;33.38;;
3891;SDS011;1961;48.194;16.370;2022-10-31T13:55:43;111.40;;;33.67;;
3891;SDS011;1961;48.194;16.370;2022-10-31T14:00:58;104.82;;;34.35;;
3891;SDS011;1961;48.194;16.370;2022-10-31T14:03:25;115.57;;;36.27;;
3891;SDS011;1961;48.194;16.370;2022-10-31T14:05:53;102.40;;;34.13;;
3891;SDS011;1961;48.194;16.370;2022-10-31T14:08:21;112.03;;;35.30;;
3891;SDS011;1961;48.194;16.370;2022-10-31T14:10:49;103.63;;;31.80;;
3891;SDS011;1961;48.194;16.370;2022-10-31T14:15:59;117.20;;;35.63;;
3891;SDS011;1961;48.194;16.370;2022-10-31T14:18:39;110.15;;;35.75;;
3891;SDS011;1961;48.194;16.370;2022-10-31T14:23:49;114.03;;;33.13;;
3891;SDS011;1961;48.194;16.370;2022-10-31T14:28:42;101.03;;;32.40;;
3891;SDS011;1961;48.194;16.370;2022-10-31T14:33:53;98.85;;;34.40;;
3891;SDS011;1961;48.194;16.370;2022-10-31T14:39:20;107.63;;;35.00;;
3891;SDS011;1961;48.194;16.370;2022-10-31T14:42:11;105.77;;;32.63;;
3891;SDS011;1961;48.194;16.370;2022-10-31T14:44:48;104.82;;;34.15;;
3891;SDS011;1961;48.194;16.370;2022-10-31T14:52:47;112.30;;;35.90;;
3891;SDS011;1961;48.194;16.370;2022-10-31T14:55:14;104.83;;;33.80;;
3891;SDS011;1961;48.194;16.370;2022-10-31T14:57:48;106.07;;;33.13;;
3891;SDS011;1961;48.194;16.370;2022-10-31T15:00:19;107.37;;;34.00;;
3891;SDS011;1961;48.194;16.370;2022-10-31T15:05:15;99.53;;;30.90;;
3891;SDS011;1961;48.194;16.370;2022-10-31T15:07:50;103.47;;;33.97;;
3891;SDS011;1961;48.194;16.370;2022-10-31T15:10:24;105.77;;;33.40;;
3891;SDS011;1961;48.194;16.370;2022-10-31T15:12:51;105.50;;;33.97;;
3891;SDS011;1961;48.194;16.370;2022-10-31T15:15:19;99.10;;;32.20;;
3891;SDS011;1961;48.194;16.370;2022-10-31T15:17:49;105.00;;;32.60;;
3891;SDS011;1961;48.194;16.370;2022-10-31T15:20:23;113.70;;;34.77;;
3891;SDS011;1961;48.194;16.370;2022-10-31T15:22:51;104.37;;;34.90;;
3891;SDS011;1961;48.194;16.370;2022-10-31T15:25:19;97.80;;;34.90;;
3891;SDS011;1961;48.194;16.370;2022-10-31T15:27:49;106.27;;;35.23;;
3891;SDS011;1961;48.194;16.370;2022-10-31T15:30:20;105.53;;;38.33;;
3891;SDS011;1961;48.194;16.370;2022-10-31T15:32:46;104.63;;;35.20;;
3891;SDS011;1961;48.194;16.370;2022-10-31T15:35:53;101.78;;;34.30;;
3891;SDS011;1961;48.194;16.370;2022-10-31T15:38:06;111.15;;;35.35;;
3891;SDS011;1961;48.194;16.370;2022-10-31T15:40:34;101.88;;;34.90;;
3891;SDS011;1961;48.194;16.370;2022-10-31T15:43:03;99.07;;;33.20;;
3891;SDS011;1961;48.194;16.370;2022-10-31T15:45:33;104.57;;;35.40;;
3891;SDS011;1961;48.194;16.370;2022-10-31T15:48:01;102.33;;;36.60;;
3891;SDS011;1961;48.194;16.370;2022-10-31T15:50:30;102.73;;;34.63;;
3891;SDS011;1961;48.194;16.370;2022-10-31T15:52:57;108.75;;;37.40;;
3891;SDS011;1961;48.194;16.370;2022-10-31T15:55:27;96.45;;;33.28;;
3891;SDS011;1961;48.194;16.370;2022-10-31T15:57:55;109.97;;;36.85;;
3891;SDS011;1961;48.194;16.370;2022-10-31T16:00:33;113.13;;;39.38;;
3891;SDS011;1961;48.194;16.370;2022-10-31T16:05:39;97.63;;;33.60;;
3891;SDS011;1961;48.194;16.370;2022-10-31T16:10:48;97.53;;;33.57;;
3891;SDS011;1961;48.194;16.370;2022-10-31T16:13:14;93.72;;;33.60;;
3891;SDS011;1961;48.194;16.370;2022-10-31T16:15:51;91.78;;;29.83;;
3891;SDS011;1961;48.194;16.370;2022-10-31T16:18:18;85.70;;;28.00;;
3891;SDS011;1961;48.194;16.370;2022-10-31T16:20:51;87.57;;;27.55;;
3891;SDS011;1961;48.194;16.370;2022-10-31T16:23:19;83.20;;;27.90;;
3891;SDS011;1961;48.194;16.370;2022-10-31T16:25:47;78.63;;;24.27;;
3891;SDS011;1961;48.194;16.370;2022-10-31T16:28:18;82.90;;;26.15;;
3891;SDS011;1961;48.194;16.370;2022-10-31T16:30:46;79.00;;;23.73;;
3891;SDS011;1961;48.194;16.370;2022-10-31T16:33:30;88.50;;;27.50;;
3891;SDS011;1961;48.194;16.370;2022-10-31T16:35:58;83.30;;;26.58;;
3891;SDS011;1961;48.194;16.370;2022-10-31T16:38:27;79.13;;;24.83;;
3891;SDS011;1961;48.194;16.370;2022-10-31T16:40:53;85.70;;;26.75;;
3891;SDS011;1961;48.194;16.370;2022-10-31T16:43:20;84.53;;;26.45;;
3891;SDS011;1961;48.194;16.370;2022-10-31T16:45:48;88.22;;;28.08;;
3891;SDS011;1961;48.194;16.370;2022-10-31T16:48:18;82.50;;;27.38;;
3891;SDS011;1961;48.194;16.370;2022-10-31T16:50:46;86.25;;;26.88;;
3891;SDS011;1961;48.194;16.370;2022-10-31T16:53:13;77.57;;;25.00;;
3891;SDS011;1961;48.194;16.370;2022-10-31T16:58:13;78.43;;;24.08;;
3891;SDS011;1961;48.194;16.370;2022-10-31T17:00:41;87.85;;;25.55;;
3891;SDS011;1961;48.194;16.370;2022-10-31T17:03:07;78.25;;;25.00;;
3891;SDS011;1961;48.194;16.370;2022-10-31T17:05:33;76.35;;;25.95;;
3891;SDS011;1961;48.194;16.370;2022-10-31T17:08:01;82.13;;;25.42;;
3891;SDS011;1961;48.194;16.370;2022-10-31T17:10:27;72.03;;;24.60;;
3891;SDS011;1961;48.194;16.370;2022-10-31T17:12:53;80.85;;;23.95;;
3891;SDS011;1961;48.194;16.370;2022-10-31T17:15:23;76.85;;;23.95;;
3891;SDS011;1961;48.194;16.370;2022-10-31T17:17:50;77.15;;;23.77;;
3891;SDS011;1961;48.194;16.370;2022-10-31T17:22:43;68.57;;;21.45;;
3891;SDS011;1961;48.194;16.370;2022-10-31T17:25:12;69.38;;;20.42;;
3891;SDS011;1961;48.194;16.370;2022-10-31T17:27:40;69.22;;;20.42;;